sensor_id;sensor_type;location;lat;lon;timestamp;P1;durP1;ratioP1;P2;durP2;ratioP2
55784;SDS011;41709;52.536;5.688;2023-02-27T00:02:11;7.43;;;2.03;;
55784;SDS011;41709;52.536;5.688;2023-02-27T00:04:37;5.63;;;1.60;;
55784;SDS011;41709;52.536;5.688;2023-02-27T00:07:02;6.15;;;1.67;;
55784;SDS011;41709;52.536;5.688;2023-02-27T00:09:28;3.17;;;1.45;;
55784;SDS011;41709;52.536;5.688;2023-02-27T00:11:54;3.90;;;1.42;;
55784;SDS011;41709;52.536;5.688;2023-02-27T00:14:19;3.88;;;1.33;;
55784;SDS011;41709;52.536;5.688;2023-02-27T00:16:45;4.65;;;1.40;;
55784;SDS011;41709;52.536;5.688;2023-02-27T00:19:10;4.40;;;1.38;;
55784;SDS011;41709;52.536;5.688;2023-02-27T00:21:37;6.22;;;1.63;;
55784;SDS011;41709;52.536;5.688;2023-02-27T00:24:03;4.43;;;1.10;;
55784;SDS011;41709;52.536;5.688;2023-02-27T00:26:29;4.88;;;1.40;;
55784;SDS011;41709;52.536;5.688;2023-02-27T00:28:54;6.93;;;1.10;;
55784;SDS011;41709;52.536;5.688;2023-02-27T00:31:20;5.05;;;1.40;;
55784;SDS011;41709;52.536;5.688;2023-02-27T00:33:46;7.55;;;1.50;;
55784;SDS011;41709;52.536;5.688;2023-02-27T00:36:11;7.55;;;1.83;;
55784;SDS011;41709;52.536;5.688;2023-02-27T00:38:37;2.90;;;1.15;;
55784;SDS011;41709;52.536;5.688;2023-02-27T00:41:02;6.60;;;1.50;;
55784;SDS011;41709;52.536;5.688;2023-02-27T00:43:28;3.42;;;1.13;;
55784;SDS011;41709;52.536;5.688;2023-02-27T00:45:54;6.38;;;1.30;;
55784;SDS011;41709;52.536;5.688;2023-02-27T00:48:19;3.17;;;1.20;;
55784;SDS011;41709;52.536;5.688;2023-02-27T00:50:45;5.07;;;1.40;;
55784;SDS011;41709;52.536;5.688;2023-02-27T00:53:10;2.80;;;1.20;;
55784;SDS011;41709;52.536;5.688;2023-02-27T00:55:36;5.60;;;1.20;;
55784;SDS011;41709;52.536;5.688;2023-02-27T00:58:01;5.38;;;1.35;;
55784;SDS011;41709;52.536;5.688;2023-02-27T01:00:27;3.00;;;0.95;;
55784;SDS011;41709;52.536;5.688;2023-02-27T01:02:53;5.72;;;1.33;;
55784;SDS011;41709;52.536;5.688;2023-02-27T01:05:19;5.13;;;1.30;;
55784;SDS011;41709;52.536;5.688;2023-02-27T01:07:44;3.83;;;1.42;;
55784;SDS011;41709;52.536;5.688;2023-02-27T01:10:11;4.07;;;1.73;;
55784;SDS011;41709;52.536;5.688;2023-02-27T01:12:37;8.55;;;1.65;;
55784;SDS011;41709;52.536;5.688;2023-02-27T01:15:04;3.88;;;0.82;;
55784;SDS011;41709;52.536;5.688;2023-02-27T01:17:31;3.58;;;1.05;;
55784;SDS011;41709;52.536;5.688;2023-02-27T01:19:57;5.03;;;1.33;;
55784;SDS011;41709;52.536;5.688;2023-02-27T01:22:22;3.25;;;1.30;;
55784;SDS011;41709;52.536;5.688;2023-02-27T01:24:48;1.90;;;1.05;;
55784;SDS011;41709;52.536;5.688;2023-02-27T01:27:14;4.90;;;1.02;;
55784;SDS011;41709;52.536;5.688;2023-02-27T01:29:40;6.93;;;1.67;;
55784;SDS011;41709;52.536;5.688;2023-02-27T01:32:05;3.63;;;1.30;;
55784;SDS011;41709;52.536;5.688;2023-02-27T01:34:31;4.75;;;1.25;;
55784;SDS011;41709;52.536;5.688;2023-02-27T01:36:56;5.38;;;1.30;;
55784;SDS011;41709;52.536;5.688;2023-02-27T01:39:22;2.90;;;0.95;;
55784;SDS011;41709;52.536;5.688;2023-02-27T01:41:47;5.30;;;2.13;;
55784;SDS011;41709;52.536;5.688;2023-02-27T01:44:13;3.80;;;1.15;;
55784;SDS011;41709;52.536;5.688;2023-02-27T01:46:39;6.07;;;1.02;;
55784;SDS011;41709;52.536;5.688;2023-02-27T01:52:19;3.65;;;0.88;;
55784;SDS011;41709;52.536;5.688;2023-02-27T01:54:39;5.03;;;1.10;;
55784;SDS011;41709;52.536;5.688;2023-02-27T01:57:06;5.47;;;1.30;;
55784;SDS011;41709;52.536;5.688;2023-02-27T01:59:34;8.50;;;1.17;;
55784;SDS011;41709;52.536;5.688;2023-02-27T02:02:02;2.40;;;1.00;;
55784;SDS011;41709;52.536;5.688;2023-02-27T02:04:32;5.75;;;1.27;;
55784;SDS011;41709;52.536;5.688;2023-02-27T02:07:02;5.18;;;1.10;;
55784;SDS011;41709;52.536;5.688;2023-02-27T02:09:35;5.07;;;1.40;;
55784;SDS011;41709;52.536;5.688;2023-02-27T02:12:03;4.55;;;0.98;;
55784;SDS011;41709;52.536;5.688;2023-02-27T02:14:29;4.38;;;1.00;;
55784;SDS011;41709;52.536;5.688;2023-02-27T02:19:45;3.05;;;0.90;;
55784;SDS011;41709;52.536;5.688;2023-02-27T02:25:19;4.88;;;1.00;;
55784;SDS011;41709;52.536;5.688;2023-02-27T02:46:30;4.68;;;1.80;;
55784;SDS011;41709;52.536;5.688;2023-02-27T02:49:14;2.95;;;0.98;;
55784;SDS011;41709;52.536;5.688;2023-02-27T02:51:49;4.47;;;1.50;;
55784;SDS011;41709;52.536;5.688;2023-02-27T02:55:23;3.50;;;0.82;;
55784;SDS011;41709;52.536;5.688;2023-02-27T02:57:44;2.42;;;0.75;;
55784;SDS011;41709;52.536;5.688;2023-02-27T03:03:00;5.95;;;1.38;;
55784;SDS011;41709;52.536;5.688;2023-02-27T03:05:42;6.13;;;1.00;;
55784;SDS011;41709;52.536;5.688;2023-02-27T03:08:15;4.65;;;0.90;;
55784;SDS011;41709;52.536;5.688;2023-02-27T03:10:48;4.40;;;1.23;;
55784;SDS011;41709;52.536;5.688;2023-02-27T03:13:25;3.08;;;1.45;;
55784;SDS011;41709;52.536;5.688;2023-02-27T03:15:58;6.95;;;1.30;;
55784;SDS011;41709;52.536;5.688;2023-02-27T03:21:42;3.50;;;1.05;;
55784;SDS011;41709;52.536;5.688;2023-02-27T03:24:31;5.35;;;1.52;;
55784;SDS011;41709;52.536;5.688;2023-02-27T03:27:12;5.03;;;1.10;;
55784;SDS011;41709;52.536;5.688;2023-02-27T03:29:46;9.50;;;1.75;;
55784;SDS011;41709;52.536;5.688;2023-02-27T03:32:22;6.72;;;1.25;;
55784;SDS011;41709;52.536;5.688;2023-02-27T03:34:55;8.02;;;0.90;;
55784;SDS011;41709;52.536;5.688;2023-02-27T03:40:08;3.78;;;1.33;;
55784;SDS011;41709;52.536;5.688;2023-02-27T03:42:47;4.00;;;1.27;;
55784;SDS011;41709;52.536;5.688;2023-02-27T03:47:56;7.43;;;1.77;;
55784;SDS011;41709;52.536;5.688;2023-02-27T03:50:22;3.90;;;1.70;;
55784;SDS011;41709;52.536;5.688;2023-02-27T03:52:48;4.93;;;1.75;;
55784;SDS011;41709;52.536;5.688;2023-02-27T03:55:15;3.88;;;1.10;;
55784;SDS011;41709;52.536;5.688;2023-02-27T03:57:43;4.85;;;1.27;;
55784;SDS011;41709;52.536;5.688;2023-02-27T04:00:13;3.20;;;1.17;;
55784;SDS011;41709;52.536;5.688;2023-02-27T04:02:42;3.13;;;1.33;;
55784;SDS011;41709;52.536;5.688;2023-02-27T04:05:09;5.43;;;1.50;;
55784;SDS011;41709;52.536;5.688;2023-02-27T04:18:55;3.50;;;1.13;;
55784;SDS011;41709;52.536;5.688;2023-02-27T04:21:29;3.30;;;1.50;;
55784;SDS011;41709;52.536;5.688;2023-02-27T04:27:21;5.82;;;1.58;;
55784;SDS011;41709;52.536;5.688;2023-02-27T04:35:26;5.82;;;1.70;;
55784;SDS011;41709;52.536;5.688;2023-02-27T04:41:30;4.38;;;1.52;;
55784;SDS011;41709;52.536;5.688;2023-02-27T04:43:36;3.20;;;1.30;;
55784;SDS011;41709;52.536;5.688;2023-02-27T04:46:04;4.95;;;1.55;;
55784;SDS011;41709;52.536;5.688;2023-02-27T04:48:36;12.30;;;1.95;;
55784;SDS011;41709;52.536;5.688;2023-02-27T04:51:16;6.78;;;1.55;;
55784;SDS011;41709;52.536;5.688;2023-02-27T04:53:53;9.80;;;2.00;;
55784;SDS011;41709;52.536;5.688;2023-02-27T04:56:27;5.40;;;1.70;;
55784;SDS011;41709;52.536;5.688;2023-02-27T04:58:58;5.13;;;2.08;;
55784;SDS011;41709;52.536;5.688;2023-02-27T05:01:36;4.57;;;1.48;;
55784;SDS011;41709;52.536;5.688;2023-02-27T05:04:19;4.32;;;1.60;;
55784;SDS011;41709;52.536;5.688;2023-02-27T05:06:46;6.63;;;1.65;;
55784;SDS011;41709;52.536;5.688;2023-02-27T05:12:05;3.17;;;1.90;;
55784;SDS011;41709;52.536;5.688;2023-02-27T05:14:51;3.95;;;1.80;;
55784;SDS011;41709;52.536;5.688;2023-02-27T05:17:30;4.68;;;1.60;;
55784;SDS011;41709;52.536;5.688;2023-02-27T05:19:59;5.65;;;1.50;;
55784;SDS011;41709;52.536;5.688;2023-02-27T05:28:03;3.97;;;1.67;;
55784;SDS011;41709;52.536;5.688;2023-02-27T05:30:56;4.65;;;1.65;;
55784;SDS011;41709;52.536;5.688;2023-02-27T05:36:14;5.45;;;2.47;;
55784;SDS011;41709;52.536;5.688;2023-02-27T05:38:51;4.63;;;1.42;;
55784;SDS011;41709;52.536;5.688;2023-02-27T05:41:22;6.07;;;1.80;;
55784;SDS011;41709;52.536;5.688;2023-02-27T05:44:09;2.22;;;1.10;;
55784;SDS011;41709;52.536;5.688;2023-02-27T05:46:58;2.33;;;1.30;;
55784;SDS011;41709;52.536;5.688;2023-02-27T05:49:30;8.27;;;1.65;;
55784;SDS011;41709;52.536;5.688;2023-02-27T05:51:58;5.47;;;1.83;;
55784;SDS011;41709;52.536;5.688;2023-02-27T05:54:35;8.60;;;1.80;;
55784;SDS011;41709;52.536;5.688;2023-02-27T05:57:01;4.68;;;1.70;;
55784;SDS011;41709;52.536;5.688;2023-02-27T06:02:35;6.28;;;1.88;;
55784;SDS011;41709;52.536;5.688;2023-02-27T06:05:00;2.55;;;1.42;;
55784;SDS011;41709;52.536;5.688;2023-02-27T06:07:29;5.20;;;1.90;;
55784;SDS011;41709;52.536;5.688;2023-02-27T06:09:55;5.07;;;1.65;;
55784;SDS011;41709;52.536;5.688;2023-02-27T06:12:20;4.78;;;1.85;;
55784;SDS011;41709;52.536;5.688;2023-02-27T06:14:46;8.57;;;1.92;;
55784;SDS011;41709;52.536;5.688;2023-02-27T06:17:11;7.70;;;1.77;;
55784;SDS011;41709;52.536;5.688;2023-02-27T06:19:37;6.93;;;1.40;;
55784;SDS011;41709;52.536;5.688;2023-02-27T06:22:02;8.50;;;1.80;;
55784;SDS011;41709;52.536;5.688;2023-02-27T06:24:28;3.17;;;1.52;;
55784;SDS011;41709;52.536;5.688;2023-02-27T06:26:53;2.75;;;1.20;;
55784;SDS011;41709;52.536;5.688;2023-02-27T06:29:19;2.85;;;1.25;;
55784;SDS011;41709;52.536;5.688;2023-02-27T06:31:45;7.63;;;1.55;;
55784;SDS011;41709;52.536;5.688;2023-02-27T06:34:10;9.65;;;1.42;;
55784;SDS011;41709;52.536;5.688;2023-02-27T06:36:36;6.25;;;1.20;;
55784;SDS011;41709;52.536;5.688;2023-02-27T06:39:01;2.72;;;1.10;;
55784;SDS011;41709;52.536;5.688;2023-02-27T06:41:28;6.28;;;1.10;;
55784;SDS011;41709;52.536;5.688;2023-02-27T06:43:54;5.75;;;1.10;;
55784;SDS011;41709;52.536;5.688;2023-02-27T06:46:20;3.85;;;1.13;;
55784;SDS011;41709;52.536;5.688;2023-02-27T06:48:46;7.25;;;1.30;;
55784;SDS011;41709;52.536;5.688;2023-02-27T06:51:11;9.38;;;1.85;;
55784;SDS011;41709;52.536;5.688;2023-02-27T06:53:37;4.40;;;1.55;;
55784;SDS011;41709;52.536;5.688;2023-02-27T06:56:02;4.15;;;1.05;;
55784;SDS011;41709;52.536;5.688;2023-02-27T06:58:28;7.38;;;1.17;;
55784;SDS011;41709;52.536;5.688;2023-02-27T07:00:54;5.32;;;1.45;;
55784;SDS011;41709;52.536;5.688;2023-02-27T07:03:22;12.30;;;1.52;;
55784;SDS011;41709;52.536;5.688;2023-02-27T07:05:47;5.40;;;1.48;;
55784;SDS011;41709;52.536;5.688;2023-02-27T07:08:13;3.63;;;1.40;;
55784;SDS011;41709;52.536;5.688;2023-02-27T07:10:41;5.05;;;1.60;;
55784;SDS011;41709;52.536;5.688;2023-02-27T07:13:10;5.32;;;1.02;;
55784;SDS011;41709;52.536;5.688;2023-02-27T07:15:35;5.30;;;1.38;;
55784;SDS011;41709;52.536;5.688;2023-02-27T07:18:01;3.65;;;1.30;;
55784;SDS011;41709;52.536;5.688;2023-02-27T07:20:26;10.18;;;1.98;;
55784;SDS011;41709;52.536;5.688;2023-02-27T07:22:52;8.50;;;1.45;;
55784;SDS011;41709;52.536;5.688;2023-02-27T07:25:17;3.65;;;1.75;;
55784;SDS011;41709;52.536;5.688;2023-02-27T07:27:43;7.95;;;1.77;;
55784;SDS011;41709;52.536;5.688;2023-02-27T07:30:10;7.85;;;1.88;;
55784;SDS011;41709;52.536;5.688;2023-02-27T07:32:36;9.32;;;1.67;;
55784;SDS011;41709;52.536;5.688;2023-02-27T07:35:01;8.98;;;1.98;;
55784;SDS011;41709;52.536;5.688;2023-02-27T07:37:28;5.72;;;1.52;;
55784;SDS011;41709;52.536;5.688;2023-02-27T07:39:53;7.25;;;1.60;;
55784;SDS011;41709;52.536;5.688;2023-02-27T07:42:19;4.97;;;1.83;;
55784;SDS011;41709;52.536;5.688;2023-02-27T07:44:45;5.03;;;1.67;;
55784;SDS011;41709;52.536;5.688;2023-02-27T07:47:11;4.20;;;1.50;;
55784;SDS011;41709;52.536;5.688;2023-02-27T07:49:36;3.92;;;1.45;;
55784;SDS011;41709;52.536;5.688;2023-02-27T07:52:02;3.88;;;1.13;;
55784;SDS011;41709;52.536;5.688;2023-02-27T07:54:28;5.95;;;1.58;;
55784;SDS011;41709;52.536;5.688;2023-02-27T07:56:53;4.97;;;1.50;;
55784;SDS011;41709;52.536;5.688;2023-02-27T07:59:19;6.80;;;1.40;;
55784;SDS011;41709;52.536;5.688;2023-02-27T08:01:44;5.80;;;1.50;;
55784;SDS011;41709;52.536;5.688;2023-02-27T08:04:10;8.05;;;1.45;;
55784;SDS011;41709;52.536;5.688;2023-02-27T08:06:35;7.22;;;2.42;;
55784;SDS011;41709;52.536;5.688;2023-02-27T08:09:01;7.85;;;2.85;;
55784;SDS011;41709;52.536;5.688;2023-02-27T08:11:27;11.32;;;1.85;;
55784;SDS011;41709;52.536;5.688;2023-02-27T08:13:52;6.15;;;1.23;;
55784;SDS011;41709;52.536;5.688;2023-02-27T08:16:18;5.15;;;1.20;;
55784;SDS011;41709;52.536;5.688;2023-02-27T08:18:43;9.27;;;1.48;;
55784;SDS011;41709;52.536;5.688;2023-02-27T08:21:09;4.35;;;1.38;;
55784;SDS011;41709;52.536;5.688;2023-02-27T08:23:34;6.45;;;1.35;;
55784;SDS011;41709;52.536;5.688;2023-02-27T08:26:03;8.82;;;1.33;;
55784;SDS011;41709;52.536;5.688;2023-02-27T08:28:28;8.65;;;1.73;;
55784;SDS011;41709;52.536;5.688;2023-02-27T08:30:54;5.00;;;1.50;;
55784;SDS011;41709;52.536;5.688;2023-02-27T08:33:20;6.30;;;1.70;;
55784;SDS011;41709;52.536;5.688;2023-02-27T08:35:46;9.63;;;1.70;;
55784;SDS011;41709;52.536;5.688;2023-02-27T08:38:12;3.47;;;1.55;;
55784;SDS011;41709;52.536;5.688;2023-02-27T08:40:37;5.53;;;1.65;;
55784;SDS011;41709;52.536;5.688;2023-02-27T08:43:03;6.57;;;1.40;;
55784;SDS011;41709;52.536;5.688;2023-02-27T08:45:28;6.28;;;1.42;;
55784;SDS011;41709;52.536;5.688;2023-02-27T08:47:54;8.90;;;1.85;;
55784;SDS011;41709;52.536;5.688;2023-02-27T08:50:19;6.95;;;1.42;;
55784;SDS011;41709;52.536;5.688;2023-02-27T08:52:45;6.38;;;1.15;;
55784;SDS011;41709;52.536;5.688;2023-02-27T08:55:11;7.85;;;1.55;;
55784;SDS011;41709;52.536;5.688;2023-02-27T08:57:36;1.95;;;1.00;;
55784;SDS011;41709;52.536;5.688;2023-02-27T09:00:02;4.93;;;1.33;;
55784;SDS011;41709;52.536;5.688;2023-02-27T09:02:30;9.57;;;1.60;;
55784;SDS011;41709;52.536;5.688;2023-02-27T09:04:56;7.00;;;1.75;;
55784;SDS011;41709;52.536;5.688;2023-02-27T09:07:21;11.65;;;1.70;;
55784;SDS011;41709;52.536;5.688;2023-02-27T09:09:47;9.00;;;1.73;;
55784;SDS011;41709;52.536;5.688;2023-02-27T09:12:12;9.38;;;1.88;;
55784;SDS011;41709;52.536;5.688;2023-02-27T09:14:38;7.07;;;2.13;;
55784;SDS011;41709;52.536;5.688;2023-02-27T09:17:04;5.70;;;1.55;;
55784;SDS011;41709;52.536;5.688;2023-02-27T09:19:30;5.82;;;1.75;;
55784;SDS011;41709;52.536;5.688;2023-02-27T09:21:56;6.28;;;1.60;;
55784;SDS011;41709;52.536;5.688;2023-02-27T09:24:22;7.47;;;1.70;;
55784;SDS011;41709;52.536;5.688;2023-02-27T09:26:48;4.68;;;1.55;;
55784;SDS011;41709;52.536;5.688;2023-02-27T09:29:14;11.85;;;2.50;;
55784;SDS011;41709;52.536;5.688;2023-02-27T09:31:40;6.43;;;2.10;;
55784;SDS011;41709;52.536;5.688;2023-02-27T09:34:06;8.27;;;1.90;;
55784;SDS011;41709;52.536;5.688;2023-02-27T09:36:31;8.57;;;1.98;;
55784;SDS011;41709;52.536;5.688;2023-02-27T09:38:57;7.18;;;2.05;;
55784;SDS011;41709;52.536;5.688;2023-02-27T09:41:41;4.35;;;1.52;;
55784;SDS011;41709;52.536;5.688;2023-02-27T09:46:50;10.13;;;1.88;;
55784;SDS011;41709;52.536;5.688;2023-02-27T09:49:17;6.10;;;1.33;;
55784;SDS011;41709;52.536;5.688;2023-02-27T09:51:45;8.23;;;1.73;;
55784;SDS011;41709;52.536;5.688;2023-02-27T09:54:11;7.82;;;1.83;;
55784;SDS011;41709;52.536;5.688;2023-02-27T09:56:43;7.25;;;1.90;;
55784;SDS011;41709;52.536;5.688;2023-02-27T09:59:19;7.05;;;1.65;;
55784;SDS011;41709;52.536;5.688;2023-02-27T10:10:46;7.15;;;1.17;;
55784;SDS011;41709;52.536;5.688;2023-02-27T10:16:29;7.10;;;1.63;;
55784;SDS011;41709;52.536;5.688;2023-02-27T10:18:59;5.32;;;1.58;;
55784;SDS011;41709;52.536;5.688;2023-02-27T10:21:46;9.30;;;1.33;;
55784;SDS011;41709;52.536;5.688;2023-02-27T10:26:53;5.13;;;0.88;;
55784;SDS011;41709;52.536;5.688;2023-02-27T10:31:57;5.13;;;1.85;;
55784;SDS011;41709;52.536;5.688;2023-02-27T10:34:28;3.97;;;1.25;;
55784;SDS011;41709;52.536;5.688;2023-02-27T10:36:55;5.25;;;1.23;;
55784;SDS011;41709;52.536;5.688;2023-02-27T10:41:50;5.90;;;2.35;;
55784;SDS011;41709;52.536;5.688;2023-02-27T10:44:16;6.20;;;2.00;;
55784;SDS011;41709;52.536;5.688;2023-02-27T10:46:45;6.95;;;1.38;;
55784;SDS011;41709;52.536;5.688;2023-02-27T10:49:14;7.18;;;1.70;;
55784;SDS011;41709;52.536;5.688;2023-02-27T10:51:44;6.57;;;1.70;;
55784;SDS011;41709;52.536;5.688;2023-02-27T11:01:55;5.00;;;1.80;;
55784;SDS011;41709;52.536;5.688;2023-02-27T11:04:24;4.20;;;1.48;;
55784;SDS011;41709;52.536;5.688;2023-02-27T11:06:53;3.42;;;1.17;;
55784;SDS011;41709;52.536;5.688;2023-02-27T11:09:24;3.10;;;1.05;;
55784;SDS011;41709;52.536;5.688;2023-02-27T11:11:51;5.75;;;1.50;;
55784;SDS011;41709;52.536;5.688;2023-02-27T11:14:30;3.53;;;1.60;;
55784;SDS011;41709;52.536;5.688;2023-02-27T11:16:58;6.85;;;2.00;;
55784;SDS011;41709;52.536;5.688;2023-02-27T11:19:31;6.82;;;2.63;;
55784;SDS011;41709;52.536;5.688;2023-02-27T11:21:59;6.03;;;2.47;;
55784;SDS011;41709;52.536;5.688;2023-02-27T11:27:05;5.43;;;1.23;;
55784;SDS011;41709;52.536;5.688;2023-02-27T11:29:57;7.15;;;1.65;;
55784;SDS011;41709;52.536;5.688;2023-02-27T11:32:35;6.50;;;2.10;;
55784;SDS011;41709;52.536;5.688;2023-02-27T11:35:16;6.22;;;1.65;;
55784;SDS011;41709;52.536;5.688;2023-02-27T11:37:50;6.00;;;1.50;;
55784;SDS011;41709;52.536;5.688;2023-02-27T11:40:18;3.38;;;0.85;;
55784;SDS011;41709;52.536;5.688;2023-02-27T11:42:49;3.17;;;1.27;;
55784;SDS011;41709;52.536;5.688;2023-02-27T11:45:26;6.20;;;1.30;;
55784;SDS011;41709;52.536;5.688;2023-02-27T11:48:00;2.40;;;1.13;;
55784;SDS011;41709;52.536;5.688;2023-02-27T11:56:20;4.78;;;1.08;;
55784;SDS011;41709;52.536;5.688;2023-02-27T12:02:13;2.38;;;0.43;;
55784;SDS011;41709;52.536;5.688;2023-02-27T12:10:55;5.40;;;1.00;;
55784;SDS011;41709;52.536;5.688;2023-02-27T12:13:26;3.90;;;0.65;;
55784;SDS011;41709;52.536;5.688;2023-02-27T12:21:37;1.35;;;0.38;;
55784;SDS011;41709;52.536;5.688;2023-02-27T12:26:37;1.48;;;0.50;;
55784;SDS011;41709;52.536;5.688;2023-02-27T12:34:46;3.20;;;0.55;;
55784;SDS011;41709;52.536;5.688;2023-02-27T12:37:25;3.22;;;0.60;;
55784;SDS011;41709;52.536;5.688;2023-02-27T12:39:57;4.55;;;0.60;;
55784;SDS011;41709;52.536;5.688;2023-02-27T12:45:18;2.33;;;0.57;;
55784;SDS011;41709;52.536;5.688;2023-02-27T12:54:09;2.65;;;0.50;;
55784;SDS011;41709;52.536;5.688;2023-02-27T12:56:44;2.45;;;0.47;;
55784;SDS011;41709;52.536;5.688;2023-02-27T13:04:43;3.78;;;0.40;;
55784;SDS011;41709;52.536;5.688;2023-02-27T13:07:17;4.55;;;0.60;;
55784;SDS011;41709;52.536;5.688;2023-02-27T13:09:50;2.90;;;0.50;;
55784;SDS011;41709;52.536;5.688;2023-02-27T13:12:24;2.78;;;0.60;;
55784;SDS011;41709;52.536;5.688;2023-02-27T13:15:13;3.50;;;0.50;;
55784;SDS011;41709;52.536;5.688;2023-02-27T13:17:51;2.83;;;0.50;;
55784;SDS011;41709;52.536;5.688;2023-02-27T13:20:28;3.30;;;0.45;;
55784;SDS011;41709;52.536;5.688;2023-02-27T13:25:37;0.65;;;0.50;;
55784;SDS011;41709;52.536;5.688;2023-02-27T13:28:06;2.47;;;0.50;;
55784;SDS011;41709;52.536;5.688;2023-02-27T13:30:43;2.20;;;0.47;;
55784;SDS011;41709;52.536;5.688;2023-02-27T13:33:20;4.57;;;0.50;;
55784;SDS011;41709;52.536;5.688;2023-02-27T13:38:43;2.58;;;0.50;;
55784;SDS011;41709;52.536;5.688;2023-02-27T13:41:52;0.40;;;0.30;;
55784;SDS011;41709;52.536;5.688;2023-02-27T13:44:35;1.13;;;0.50;;
55784;SDS011;41709;52.536;5.688;2023-02-27T13:49:53;2.55;;;0.80;;
55784;SDS011;41709;52.536;5.688;2023-02-27T13:52:41;1.38;;;0.40;;
55784;SDS011;41709;52.536;5.688;2023-02-27T13:55:06;1.48;;;0.50;;
55784;SDS011;41709;52.536;5.688;2023-02-27T13:57:51;3.15;;;0.55;;
55784;SDS011;41709;52.536;5.688;2023-02-27T14:00:20;0.60;;;0.40;;
55784;SDS011;41709;52.536;5.688;2023-02-27T14:05:21;3.10;;;0.50;;
55784;SDS011;41709;52.536;5.688;2023-02-27T14:10:27;0.85;;;0.50;;
55784;SDS011;41709;52.536;5.688;2023-02-27T14:12:55;1.08;;;0.73;;
55784;SDS011;41709;52.536;5.688;2023-02-27T14:17:56;1.88;;;0.40;;
55784;SDS011;41709;52.536;5.688;2023-02-27T14:26:10;2.40;;;0.90;;
55784;SDS011;41709;52.536;5.688;2023-02-27T14:28:48;1.33;;;0.52;;
55784;SDS011;41709;52.536;5.688;2023-02-27T14:31:32;3.60;;;0.90;;
55784;SDS011;41709;52.536;5.688;2023-02-27T14:34:00;4.00;;;0.50;;
55784;SDS011;41709;52.536;5.688;2023-02-27T14:36:44;2.72;;;0.70;;
55784;SDS011;41709;52.536;5.688;2023-02-27T14:44:53;2.17;;;0.50;;
55784;SDS011;41709;52.536;5.688;2023-02-27T14:47:33;3.50;;;0.40;;
55784;SDS011;41709;52.536;5.688;2023-02-27T14:50:01;2.95;;;0.45;;
55784;SDS011;41709;52.536;5.688;2023-02-27T14:52:30;1.70;;;0.40;;
55784;SDS011;41709;52.536;5.688;2023-02-27T15:00:41;2.70;;;0.60;;
55784;SDS011;41709;52.536;5.688;2023-02-27T15:05:45;1.73;;;0.50;;
55784;SDS011;41709;52.536;5.688;2023-02-27T15:08:23;1.17;;;0.77;;
55784;SDS011;41709;52.536;5.688;2023-02-27T15:10:51;2.00;;;0.40;;
55784;SDS011;41709;52.536;5.688;2023-02-27T15:13:26;2.17;;;0.50;;
55784;SDS011;41709;52.536;5.688;2023-02-27T15:18:48;2.70;;;0.40;;
55784;SDS011;41709;52.536;5.688;2023-02-27T15:21:15;1.05;;;0.40;;
55784;SDS011;41709;52.536;5.688;2023-02-27T15:23:43;2.22;;;0.43;;
55784;SDS011;41709;52.536;5.688;2023-02-27T15:26:16;2.08;;;0.40;;
55784;SDS011;41709;52.536;5.688;2023-02-27T15:28:42;2.50;;;0.43;;
55784;SDS011;41709;52.536;5.688;2023-02-27T15:31:08;0.17;;;0.17;;
55784;SDS011;41709;52.536;5.688;2023-02-27T15:33:41;0.95;;;0.20;;
55784;SDS011;41709;52.536;5.688;2023-02-27T15:36:07;0.95;;;0.30;;
55784;SDS011;41709;52.536;5.688;2023-02-27T15:38:45;1.13;;;0.30;;
55784;SDS011;41709;52.536;5.688;2023-02-27T15:41:11;3.08;;;0.40;;
55784;SDS011;41709;52.536;5.688;2023-02-27T15:43:38;1.15;;;0.30;;
55784;SDS011;41709;52.536;5.688;2023-02-27T15:46:05;4.75;;;0.40;;
55784;SDS011;41709;52.536;5.688;2023-02-27T15:48:31;1.85;;;0.30;;
55784;SDS011;41709;52.536;5.688;2023-02-27T15:50:57;1.52;;;0.40;;
55784;SDS011;41709;52.536;5.688;2023-02-27T15:53:26;1.08;;;0.40;;
55784;SDS011;41709;52.536;5.688;2023-02-27T15:55:55;1.75;;;0.40;;
55784;SDS011;41709;52.536;5.688;2023-02-27T15:58:24;2.88;;;0.50;;
55784;SDS011;41709;52.536;5.688;2023-02-27T16:01:03;1.48;;;0.80;;
55784;SDS011;41709;52.536;5.688;2023-02-27T16:03:45;2.80;;;0.40;;
55784;SDS011;41709;52.536;5.688;2023-02-27T16:06:20;1.05;;;0.50;;
55784;SDS011;41709;52.536;5.688;2023-02-27T16:11:24;1.13;;;0.35;;
55784;SDS011;41709;52.536;5.688;2023-02-27T16:13:52;3.70;;;0.50;;
55784;SDS011;41709;52.536;5.688;2023-02-27T16:18:47;2.10;;;0.40;;
55784;SDS011;41709;52.536;5.688;2023-02-27T16:21:16;2.95;;;0.50;;
55784;SDS011;41709;52.536;5.688;2023-02-27T16:23:52;1.95;;;0.68;;
55784;SDS011;41709;52.536;5.688;2023-02-27T16:26:33;0.77;;;0.47;;
55784;SDS011;41709;52.536;5.688;2023-02-27T16:29:04;1.48;;;0.35;;
55784;SDS011;41709;52.536;5.688;2023-02-27T16:34:14;2.30;;;0.75;;
55784;SDS011;41709;52.536;5.688;2023-02-27T16:36:53;2.63;;;1.08;;
55784;SDS011;41709;52.536;5.688;2023-02-27T16:39:24;2.15;;;0.47;;
55784;SDS011;41709;52.536;5.688;2023-02-27T16:41:54;0.93;;;0.52;;
55784;SDS011;41709;52.536;5.688;2023-02-27T16:44:20;1.88;;;0.80;;
55784;SDS011;41709;52.536;5.688;2023-02-27T16:46:48;0.75;;;0.60;;
55784;SDS011;41709;52.536;5.688;2023-02-27T16:49:21;3.58;;;0.77;;
55784;SDS011;41709;52.536;5.688;2023-02-27T16:51:49;1.45;;;0.50;;
55784;SDS011;41709;52.536;5.688;2023-02-27T16:54:15;1.33;;;0.40;;
55784;SDS011;41709;52.536;5.688;2023-02-27T16:56:41;1.65;;;0.43;;
55784;SDS011;41709;52.536;5.688;2023-02-27T16:59:28;0.20;;;0.20;;
55784;SDS011;41709;52.536;5.688;2023-02-27T17:02:04;0.80;;;0.20;;
55784;SDS011;41709;52.536;5.688;2023-02-27T17:04:34;1.40;;;0.40;;
55784;SDS011;41709;52.536;5.688;2023-02-27T17:07:00;0.98;;;0.47;;
55784;SDS011;41709;52.536;5.688;2023-02-27T17:09:26;1.85;;;0.30;;
55784;SDS011;41709;52.536;5.688;2023-02-27T17:11:52;2.20;;;0.20;;
55784;SDS011;41709;52.536;5.688;2023-02-27T17:14:19;11.20;;;0.93;;
55784;SDS011;41709;52.536;5.688;2023-02-27T17:16:45;1.85;;;0.40;;
55784;SDS011;41709;52.536;5.688;2023-02-27T17:19:11;2.22;;;0.35;;
55784;SDS011;41709;52.536;5.688;2023-02-27T17:21:38;1.70;;;0.50;;
55784;SDS011;41709;52.536;5.688;2023-02-27T17:24:04;2.72;;;0.82;;
55784;SDS011;41709;52.536;5.688;2023-02-27T17:26:30;2.08;;;0.43;;
55784;SDS011;41709;52.536;5.688;2023-02-27T17:28:56;1.77;;;0.50;;
55784;SDS011;41709;52.536;5.688;2023-02-27T17:31:22;0.93;;;0.40;;
55784;SDS011;41709;52.536;5.688;2023-02-27T17:33:49;1.20;;;0.38;;
55784;SDS011;41709;52.536;5.688;2023-02-27T17:36:16;2.40;;;0.30;;
55784;SDS011;41709;52.536;5.688;2023-02-27T17:38:42;2.50;;;0.60;;
55784;SDS011;41709;52.536;5.688;2023-02-27T17:41:09;1.75;;;0.50;;
55784;SDS011;41709;52.536;5.688;2023-02-27T17:43:36;2.10;;;0.60;;
55784;SDS011;41709;52.536;5.688;2023-02-27T17:46:06;2.95;;;1.02;;
55784;SDS011;41709;52.536;5.688;2023-02-27T17:48:32;4.22;;;1.48;;
55784;SDS011;41709;52.536;5.688;2023-02-27T17:51:05;3.50;;;1.55;;
55784;SDS011;41709;52.536;5.688;2023-02-27T17:53:33;4.57;;;0.82;;
55784;SDS011;41709;52.536;5.688;2023-02-27T17:55:59;2.97;;;0.60;;
55784;SDS011;41709;52.536;5.688;2023-02-27T17:58:25;1.95;;;0.50;;
55784;SDS011;41709;52.536;5.688;2023-02-27T18:00:51;3.83;;;0.70;;
55784;SDS011;41709;52.536;5.688;2023-02-27T18:03:16;1.25;;;0.60;;
55784;SDS011;41709;52.536;5.688;2023-02-27T18:05:46;2.78;;;0.50;;
55784;SDS011;41709;52.536;5.688;2023-02-27T18:08:16;4.10;;;1.27;;
55784;SDS011;41709;52.536;5.688;2023-02-27T18:10:46;2.38;;;1.05;;
55784;SDS011;41709;52.536;5.688;2023-02-27T18:13:12;3.03;;;1.48;;
55784;SDS011;41709;52.536;5.688;2023-02-27T18:15:38;4.07;;;1.90;;
55784;SDS011;41709;52.536;5.688;2023-02-27T18:18:03;2.83;;;1.00;;
55784;SDS011;41709;52.536;5.688;2023-02-27T18:20:29;4.13;;;0.90;;
55784;SDS011;41709;52.536;5.688;2023-02-27T18:22:55;2.60;;;1.20;;